createdAt,value
2017-07-12T00:00:13.677Z,0
2017-07-12T00:00:39.818Z,0
2017-07-12T00:01:05.948Z,0
2017-07-12T00:01:32.094Z,0
2017-07-12T00:01:58.231Z,0
2017-07-12T00:02:24.364Z,0
2017-07-12T00:02:50.507Z,0
2017-07-12T00:03:16.637Z,0
2017-07-12T00:03:42.789Z,0
2017-07-12T00:04:08.923Z,0
2017-07-12T00:04:35.055Z,0
2017-07-12T00:05:01.201Z,0
2017-07-12T00:05:27.342Z,0
2017-07-12T00:05:53.471Z,0
2017-07-12T00:06:19.635Z,0
2017-07-12T00:06:45.781Z,0
2017-07-12T00:07:11.911Z,0
2017-07-12T00:07:38.050Z,0
2017-07-12T00:08:04.195Z,0
2017-07-12T00:08:30.326Z,0
2017-07-12T00:08:56.469Z,0
2017-07-12T00:09:22.602Z,0
2017-07-12T00:09:48.746Z,0
2017-07-12T00:10:14.890Z,0
2017-07-12T00:10:41.021Z,0
2017-07-12T00:11:07.162Z,0
2017-07-12T00:11:33.310Z,0
2017-07-12T00:11:59.439Z,0
2017-07-12T00:12:25.578Z,0
2017-07-12T00:12:51.722Z,0
2017-07-12T00:13:17.859Z,0
2017-07-12T00:13:43.988Z,0
2017-07-12T00:14:10.155Z,0
2017-07-12T00:14:36.294Z,0
2017-07-12T00:15:02.441Z,0
2017-07-12T00:15:28.572Z,0
2017-07-12T00:15:54.712Z,0
2017-07-12T00:16:20.859Z,0
2017-07-12T00:16:46.991Z,0
2017-07-12T00:17:13.122Z,0
2017-07-12T00:17:39.270Z,0
2017-07-12T00:18:05.408Z,0
2017-07-12T00:18:31.539Z,0
2017-07-12T00:18:57.688Z,0
2017-07-12T00:19:23.826Z,0
2017-07-12T00:19:49.969Z,0
2017-07-12T00:20:16.100Z,0
2017-07-12T00:20:42.233Z,0
2017-07-12T00:21:08.381Z,0
2017-07-12T00:21:34.520Z,0
2017-07-12T00:22:00.650Z,0
2017-07-12T00:22:26.792Z,0
2017-07-12T00:22:52.932Z,0
2017-07-12T00:23:19.066Z,0
2017-07-12T00:23:45.208Z,0
2017-07-12T00:24:11.353Z,0
2017-07-12T00:24:37.483Z,0
2017-07-12T00:25:03.621Z,0
2017-07-12T00:25:29.755Z,0
2017-07-12T00:25:55.897Z,0
2017-07-12T00:26:22.039Z,0
2017-07-12T00:26:48.189Z,0
2017-07-12T00:27:14.333Z,0
2017-07-12T00:27:40.479Z,0
2017-07-12T00:28:06.609Z,0
2017-07-12T00:28:32.746Z,0
2017-07-12T00:28:58.888Z,0
2017-07-12T00:29:25.023Z,0
2017-07-12T00:29:51.161Z,0
2017-07-12T00:30:17.304Z,0
2017-07-12T00:30:43.438Z,0
2017-07-12T00:31:09.573Z,0
2017-07-12T00:31:35.724Z,0
2017-07-12T00:32:01.861Z,0
2017-07-12T00:32:27.992Z,0
2017-07-12T00:32:54.135Z,0
2017-07-12T00:33:20.279Z,0
2017-07-12T00:33:46.408Z,0
2017-07-12T00:34:12.554Z,0
2017-07-12T00:34:38.696Z,0
2017-07-12T00:35:04.825Z,0
2017-07-12T00:35:30.965Z,0
2017-07-12T00:35:57.111Z,0
2017-07-12T00:36:23.243Z,0
2017-07-12T00:36:49.387Z,0
2017-07-12T00:37:15.515Z,0
2017-07-12T00:37:41.659Z,0
2017-07-12T00:38:07.806Z,0
2017-07-12T00:38:33.987Z,0
2017-07-12T00:39:00.075Z,0
2017-07-12T00:39:26.224Z,0
2017-07-12T00:39:52.355Z,0
2017-07-12T00:40:18.491Z,0
2017-07-12T00:40:44.640Z,0
2017-07-12T00:41:10.783Z,0
2017-07-12T00:41:36.901Z,0
2017-07-12T00:42:03.043Z,0
2017-07-12T00:42:29.190Z,0
2017-07-12T00:42:55.361Z,0
2017-07-12T00:43:21.489Z,0
2017-07-12T00:43:47.624Z,0
2017-07-12T00:44:13.771Z,0
2017-07-12T00:44:39.905Z,0
2017-07-12T00:45:06.034Z,0
2017-07-12T00:45:32.185Z,0
2017-07-12T00:45:58.345Z,0
2017-07-12T00:46:24.475Z,0
2017-07-12T00:46:50.619Z,0
2017-07-12T00:47:16.763Z,0
2017-07-12T00:47:42.900Z,0
2017-07-12T00:48:09.036Z,0
2017-07-12T00:48:35.165Z,0
2017-07-12T00:49:01.315Z,0
2017-07-12T00:49:27.466Z,0
2017-07-12T00:49:53.595Z,0
2017-07-12T00:50:19.745Z,0
2017-07-12T00:50:45.889Z,0
2017-07-12T00:51:12.020Z,0
2017-07-12T00:51:38.160Z,0
2017-07-12T00:52:04.308Z,0
2017-07-12T00:52:30.433Z,0
2017-07-12T00:52:56.575Z,0
2017-07-12T00:53:22.709Z,0
2017-07-12T00:53:48.853Z,0
2017-07-12T00:54:14.992Z,0
2017-07-12T00:54:41.123Z,0
2017-07-12T00:55:07.266Z,0
2017-07-12T00:55:33.410Z,0
2017-07-12T00:55:59.538Z,0
2017-07-12T00:56:25.677Z,0
2017-07-12T00:56:51.824Z,0
2017-07-12T00:57:17.955Z,0
2017-07-12T00:57:44.099Z,0
2017-07-12T00:58:10.241Z,0
2017-07-12T00:58:36.375Z,0
2017-07-12T00:59:02.521Z,0
2017-07-12T00:59:28.649Z,0
2017-07-12T00:59:54.790Z,0
2017-07-12T01:00:20.934Z,0
2017-07-12T01:00:47.069Z,0
2017-07-12T01:01:13.207Z,0
2017-07-12T01:01:39.351Z,0
2017-07-12T01:02:05.484Z,0
2017-07-12T01:02:31.617Z,0
2017-07-12T01:02:57.763Z,0
2017-07-12T01:03:23.903Z,0
2017-07-12T01:03:50.036Z,0
2017-07-12T01:04:16.180Z,0
2017-07-12T01:04:42.312Z,0
2017-07-12T01:05:08.459Z,0
2017-07-12T01:05:34.594Z,0
2017-07-12T01:06:00.721Z,0
2017-07-12T01:06:26.871Z,0
2017-07-12T01:06:53.037Z,0
2017-07-12T01:07:19.168Z,0
2017-07-12T01:07:45.316Z,0
2017-07-12T01:08:11.459Z,0
2017-07-12T01:08:37.586Z,0
2017-07-12T01:09:03.729Z,0
2017-07-12T01:09:29.873Z,0
2017-07-12T01:09:56.009Z,0
2017-07-12T01:10:22.147Z,0
2017-07-12T01:10:48.276Z,0
2017-07-12T01:11:14.426Z,0
2017-07-12T01:11:40.569Z,0
2017-07-12T01:12:06.695Z,0
2017-07-12T01:12:32.834Z,0
2017-07-12T01:12:58.980Z,0
2017-07-12T01:13:25.107Z,0
2017-07-12T01:13:51.250Z,0
2017-07-12T01:14:17.396Z,0
2017-07-12T01:14:43.528Z,0
2017-07-12T01:15:09.663Z,0
2017-07-12T01:15:35.809Z,0
2017-07-12T01:16:01.945Z,0
2017-07-12T01:16:28.076Z,0
2017-07-12T01:16:54.224Z,0
2017-07-12T01:17:20.357Z,0
2017-07-12T01:17:46.486Z,0
2017-07-12T01:18:12.632Z,0
2017-07-12T01:18:38.775Z,0
2017-07-12T01:19:04.924Z,0
2017-07-12T01:19:31.067Z,0
2017-07-12T01:19:57.214Z,0
2017-07-12T01:20:23.340Z,0
2017-07-12T01:20:49.480Z,0
2017-07-12T01:21:15.615Z,0
2017-07-12T01:21:41.762Z,0
2017-07-12T01:22:07.898Z,0
2017-07-12T01:22:34.035Z,0
2017-07-12T01:23:00.174Z,0
2017-07-12T01:23:26.321Z,0
2017-07-12T01:23:52.447Z,0
2017-07-12T01:24:18.593Z,0
2017-07-12T01:24:44.739Z,0
2017-07-12T01:25:10.867Z,0
2017-07-12T01:25:37.001Z,0
2017-07-12T01:26:03.149Z,0
2017-07-12T01:26:29.287Z,0
2017-07-12T01:26:55.431Z,0
2017-07-12T01:27:21.563Z,0
2017-07-12T01:27:47.700Z,0
2017-07-12T01:28:13.846Z,0
2017-07-12T01:28:39.975Z,0
2017-07-12T01:29:06.115Z,0
2017-07-12T01:29:32.262Z,0
2017-07-12T01:29:58.397Z,0
2017-07-12T01:30:24.526Z,0
2017-07-12T01:30:50.674Z,0
2017-07-12T01:31:16.807Z,0
2017-07-12T01:31:42.935Z,0
2017-07-12T01:32:09.081Z,0
2017-07-12T01:32:35.217Z,0
2017-07-12T01:33:01.365Z,0
2017-07-12T01:33:27.495Z,0
2017-07-12T01:33:53.625Z,0
2017-07-12T01:34:19.771Z,0
2017-07-12T01:34:45.907Z,0
2017-07-12T01:35:12.035Z,0
2017-07-12T01:35:38.179Z,0
2017-07-12T01:36:04.318Z,0
2017-07-12T01:36:30.450Z,0
2017-07-12T01:36:56.593Z,0
2017-07-12T01:37:22.742Z,0
2017-07-12T01:37:48.876Z,0
2017-07-12T01:38:15.012Z,0
2017-07-12T01:38:41.142Z,0
2017-07-12T01:39:07.296Z,0
2017-07-12T01:39:33.432Z,0
2017-07-12T01:39:59.564Z,0
2017-07-12T01:40:25.725Z,0
2017-07-12T01:40:51.872Z,0
2017-07-12T01:41:17.996Z,0
2017-07-12T01:41:44.137Z,0
2017-07-12T01:42:10.284Z,0
2017-07-12T01:42:36.414Z,0
2017-07-12T01:43:02.550Z,0
2017-07-12T01:43:28.695Z,0
2017-07-12T01:43:54.830Z,0
2017-07-12T01:44:20.977Z,0
2017-07-12T01:44:47.103Z,0
2017-07-12T01:45:13.247Z,0
2017-07-12T01:45:39.392Z,0
2017-07-12T01:46:05.521Z,0
2017-07-12T01:46:31.656Z,0
2017-07-12T01:46:57.805Z,0
2017-07-12T01:47:23.940Z,0
2017-07-12T01:47:50.119Z,0
2017-07-12T01:48:16.219Z,0
2017-07-12T01:48:42.355Z,0
2017-07-12T01:49:08.502Z,0
2017-07-12T01:49:34.631Z,0
2017-07-12T01:50:00.772Z,0
2017-07-12T01:50:26.917Z,0
2017-07-12T01:50:53.050Z,0
2017-07-12T01:51:19.180Z,0
2017-07-12T01:51:45.331Z,0
2017-07-12T01:52:11.465Z,0
2017-07-12T01:52:37.595Z,0
2017-07-12T01:53:03.742Z,0
2017-07-12T01:53:29.882Z,0
2017-07-12T01:53:56.014Z,0
2017-07-12T01:54:22.154Z,0
2017-07-12T01:54:48.286Z,0
2017-07-12T01:55:14.433Z,0
2017-07-12T01:55:40.569Z,0
2017-07-12T01:56:06.699Z,0
2017-07-12T01:56:32.848Z,0
2017-07-12T01:56:58.988Z,0
2017-07-12T01:57:25.121Z,0
2017-07-12T01:57:51.264Z,0
2017-07-12T01:58:17.411Z,0
2017-07-12T01:58:43.535Z,0
2017-07-12T01:59:09.674Z,0
2017-07-12T01:59:35.820Z,0
2017-07-12T02:00:01.948Z,0
2017-07-12T02:00:28.087Z,0
2017-07-12T02:00:54.232Z,0
2017-07-12T02:01:20.363Z,0
2017-07-12T02:01:46.495Z,0
2017-07-12T02:02:12.641Z,0
2017-07-12T02:02:38.777Z,0
2017-07-12T02:03:04.906Z,0
2017-07-12T02:03:31.050Z,0
2017-07-12T02:03:57.192Z,0
2017-07-12T02:04:23.326Z,0
2017-07-12T02:04:49.469Z,0
2017-07-12T02:05:15.615Z,0
2017-07-12T02:05:41.748Z,0
2017-07-12T02:06:07.889Z,0
2017-07-12T02:06:34.021Z,0
2017-07-12T02:07:00.164Z,0
2017-07-12T02:07:26.332Z,0
2017-07-12T02:07:52.459Z,0
2017-07-12T02:08:18.603Z,0
2017-07-12T02:08:44.751Z,0
2017-07-12T02:09:10.878Z,0
2017-07-12T02:09:37.014Z,0
2017-07-12T02:10:03.160Z,0
2017-07-12T02:10:29.289Z,0
2017-07-12T02:10:55.431Z,0
2017-07-12T02:11:21.566Z,0
2017-07-12T02:11:47.710Z,0
2017-07-12T02:12:13.856Z,0
2017-07-12T02:12:39.983Z,0
2017-07-12T02:13:06.122Z,0
2017-07-12T02:13:32.267Z,0
2017-07-12T02:13:58.397Z,0
2017-07-12T02:14:24.538Z,0
2017-07-12T02:14:50.683Z,0
2017-07-12T02:15:17.017Z,0
2017-07-12T02:15:43.150Z,0
2017-07-12T02:16:09.296Z,0
2017-07-12T02:16:35.435Z,0
2017-07-12T02:17:01.577Z,0
2017-07-12T02:17:27.708Z,0
2017-07-12T02:17:53.843Z,0
2017-07-12T02:18:19.991Z,0
2017-07-12T02:18:46.123Z,0
2017-07-12T02:19:12.254Z,0
2017-07-12T02:19:38.399Z,0
2017-07-12T02:20:04.537Z,0
2017-07-12T02:20:30.668Z,0
2017-07-12T02:20:56.815Z,0
2017-07-12T02:21:22.955Z,0
2017-07-12T02:21:49.084Z,0
2017-07-12T02:22:15.241Z,0
2017-07-12T02:22:41.383Z,0
2017-07-12T02:23:07.512Z,0
2017-07-12T02:23:33.651Z,0
2017-07-12T02:23:59.801Z,0
2017-07-12T02:24:25.927Z,0
2017-07-12T02:24:52.065Z,0
2017-07-12T02:25:18.209Z,0
2017-07-12T02:25:44.345Z,0
2017-07-12T02:26:10.475Z,0
2017-07-12T02:26:36.623Z,0
2017-07-12T02:27:02.755Z,0
2017-07-12T02:27:28.884Z,0
2017-07-12T02:27:55.027Z,0
2017-07-12T02:28:21.188Z,0
2017-07-12T02:28:47.337Z,0
2017-07-12T02:29:13.465Z,0
2017-07-12T02:29:39.596Z,0
2017-07-12T02:30:05.804Z,0
2017-07-12T02:30:31.882Z,0
2017-07-12T02:30:58.010Z,0
2017-07-12T02:31:24.155Z,0
2017-07-12T02:31:50.292Z,0
2017-07-12T02:32:16.423Z,0
2017-07-12T02:32:42.563Z,0
2017-07-12T02:33:08.713Z,0
2017-07-12T02:33:34.845Z,0
2017-07-12T02:34:00.983Z,0
2017-07-12T02:34:27.115Z,0
2017-07-12T02:34:53.259Z,0
2017-07-12T02:35:19.396Z,0
2017-07-12T02:35:45.528Z,0
2017-07-12T02:36:11.695Z,0
2017-07-12T02:36:37.838Z,0
2017-07-12T02:37:03.965Z,0
2017-07-12T02:37:30.102Z,0
2017-07-12T02:37:56.247Z,0
2017-07-12T02:38:22.377Z,0
2017-07-12T02:38:48.513Z,0
2017-07-12T02:39:14.649Z,0
2017-07-12T02:39:40.797Z,0
2017-07-12T02:40:06.942Z,0
2017-07-12T02:40:33.079Z,0
2017-07-12T02:40:59.215Z,0
2017-07-12T02:41:25.358Z,0
2017-07-12T02:41:51.488Z,0
2017-07-12T02:42:17.629Z,0
2017-07-12T02:42:43.768Z,0
2017-07-12T02:43:09.902Z,0
2017-07-12T02:43:36.039Z,0
2017-07-12T02:44:02.187Z,0
2017-07-12T02:44:28.324Z,0
2017-07-12T02:44:54.455Z,0
2017-07-12T02:45:20.598Z,0
2017-07-12T02:45:46.742Z,0
2017-07-12T02:46:12.870Z,0
2017-07-12T02:46:39.015Z,0
2017-07-12T02:47:05.159Z,0
2017-07-12T02:47:31.288Z,0
2017-07-12T02:47:57.429Z,0
2017-07-12T02:48:23.572Z,0
2017-07-12T02:48:49.705Z,0
2017-07-12T02:49:15.846Z,0
2017-07-12T02:49:41.989Z,0
2017-07-12T02:50:08.121Z,0
2017-07-12T02:50:34.267Z,0
2017-07-12T02:51:00.394Z,0
2017-07-12T02:51:26.539Z,0
2017-07-12T02:51:52.704Z,0
2017-07-12T02:52:18.839Z,0
2017-07-12T02:52:44.975Z,0
2017-07-12T02:53:11.126Z,0
2017-07-12T02:53:37.254Z,0
2017-07-12T02:54:03.385Z,0
2017-07-12T02:54:29.532Z,0
2017-07-12T02:54:55.672Z,0
2017-07-12T02:55:21.805Z,0
2017-07-12T02:55:47.951Z,0
2017-07-12T02:56:14.083Z,0
2017-07-12T02:56:40.229Z,0
2017-07-12T02:57:06.363Z,0
2017-07-12T02:57:32.490Z,0
2017-07-12T02:57:58.641Z,0
2017-07-12T02:58:24.776Z,0
2017-07-12T02:58:50.907Z,0
2017-07-12T02:59:17.051Z,0
2017-07-12T02:59:43.191Z,0
2017-07-12T03:00:09.318Z,0
2017-07-12T03:00:35.463Z,0
2017-07-12T03:01:01.606Z,0
2017-07-12T03:01:27.742Z,0
2017-07-12T03:01:53.875Z,0
2017-07-12T03:02:20.003Z,0
2017-07-12T03:02:46.191Z,0
2017-07-12T03:03:12.333Z,0
2017-07-12T03:03:38.486Z,0
2017-07-12T03:04:04.628Z,0
2017-07-12T03:04:30.775Z,0
2017-07-12T03:04:56.899Z,0
2017-07-12T03:05:23.041Z,0
2017-07-12T03:05:49.186Z,0
2017-07-12T03:06:15.316Z,0
2017-07-12T03:06:41.451Z,0
2017-07-12T03:07:07.589Z,0
2017-07-12T03:07:33.732Z,0
2017-07-12T03:07:59.878Z,0
2017-07-12T03:08:26.009Z,0
2017-07-12T03:08:52.146Z,0
2017-07-12T03:09:18.291Z,0
2017-07-12T03:09:44.452Z,0
2017-07-12T03:10:10.590Z,0
2017-07-12T03:10:36.734Z,0
2017-07-12T03:11:02.865Z,0
2017-07-12T03:11:28.997Z,0
2017-07-12T03:11:55.146Z,0
2017-07-12T03:12:21.287Z,0
2017-07-12T03:12:47.428Z,0
2017-07-12T03:13:13.559Z,0
2017-07-12T03:13:39.695Z,0
2017-07-12T03:14:05.842Z,0
2017-07-12T03:14:31.974Z,0
2017-07-12T03:14:58.105Z,0
2017-07-12T03:15:24.252Z,0
2017-07-12T03:15:50.389Z,0
2017-07-12T03:16:16.519Z,0
2017-07-12T03:16:42.665Z,0
2017-07-12T03:17:08.828Z,0
2017-07-12T03:17:34.959Z,0
2017-07-12T03:18:01.103Z,0
2017-07-12T03:18:27.233Z,0
2017-07-12T03:18:53.384Z,0
2017-07-12T03:19:19.520Z,0
2017-07-12T03:19:45.655Z,0
2017-07-12T03:20:11.800Z,0
2017-07-12T03:20:37.939Z,0
2017-07-12T03:21:04.065Z,0
2017-07-12T03:21:30.207Z,0
2017-07-12T03:21:56.348Z,0
2017-07-12T03:22:22.478Z,0
2017-07-12T03:22:48.616Z,0
2017-07-12T03:23:14.760Z,0
2017-07-12T03:23:40.892Z,0
2017-07-12T03:24:07.037Z,0
2017-07-12T03:24:33.164Z,0
2017-07-12T03:24:59.306Z,0
2017-07-12T03:25:25.455Z,0
2017-07-12T03:25:51.583Z,0
2017-07-12T03:26:17.727Z,0
2017-07-12T03:26:43.875Z,0
2017-07-12T03:27:10.008Z,0
2017-07-12T03:27:36.147Z,0
2017-07-12T03:28:02.291Z,0
2017-07-12T03:28:28.425Z,0
2017-07-12T03:28:54.557Z,0
2017-07-12T03:29:20.708Z,0
2017-07-12T03:29:46.841Z,0
2017-07-12T03:30:12.972Z,0
2017-07-12T03:30:39.120Z,0
2017-07-12T03:31:05.261Z,0
2017-07-12T03:31:31.389Z,0
2017-07-12T03:31:57.554Z,0
2017-07-12T03:32:23.701Z,0
2017-07-12T03:32:49.878Z,0
2017-07-12T03:33:15.968Z,0
2017-07-12T03:33:42.117Z,0
2017-07-12T03:34:08.247Z,0
2017-07-12T03:34:34.381Z,0
2017-07-12T03:35:00.521Z,0
2017-07-12T03:35:26.663Z,0
2017-07-12T03:35:52.808Z,0
2017-07-12T03:36:18.932Z,0
2017-07-12T03:36:45.076Z,0
2017-07-12T03:37:11.226Z,0
2017-07-12T03:37:37.354Z,0
2017-07-12T03:38:03.490Z,0
2017-07-12T03:38:29.636Z,0
2017-07-12T03:38:55.770Z,0
2017-07-12T03:39:21.897Z,0
2017-07-12T03:39:48.049Z,0
2017-07-12T03:40:14.187Z,0
2017-07-12T03:40:40.349Z,0
2017-07-12T03:41:06.478Z,0
2017-07-12T03:41:32.617Z,0
2017-07-12T03:41:58.761Z,0
2017-07-12T03:42:24.895Z,0
2017-07-12T03:42:51.045Z,5
2017-07-12T03:43:17.197Z,5
2017-07-12T03:43:43.331Z,5
2017-07-12T03:44:09.460Z,5
2017-07-12T03:44:35.607Z,5
2017-07-12T03:45:01.748Z,5
2017-07-12T03:45:27.897Z,5
2017-07-12T03:45:54.038Z,5
2017-07-12T03:46:20.168Z,5
2017-07-12T03:46:46.316Z,5
2017-07-12T03:47:12.454Z,5
2017-07-12T03:47:38.582Z,5
2017-07-12T03:48:04.734Z,5
2017-07-12T03:48:30.869Z,5
2017-07-12T03:48:57.001Z,10
2017-07-12T03:49:23.143Z,10
2017-07-12T03:49:49.289Z,10
2017-07-12T03:50:15.413Z,10
2017-07-12T03:50:41.554Z,10
2017-07-12T03:51:07.703Z,10
2017-07-12T03:51:33.833Z,10
2017-07-12T03:51:59.977Z,10
2017-07-12T03:52:26.129Z,10
2017-07-12T03:52:52.270Z,10
2017-07-12T03:53:18.416Z,10
2017-07-12T03:53:44.541Z,10
2017-07-12T03:54:10.684Z,10
2017-07-12T03:54:36.830Z,10
2017-07-12T03:55:02.961Z,10
2017-07-12T03:55:29.096Z,10
2017-07-12T03:55:55.242Z,10
2017-07-12T03:56:21.374Z,10
2017-07-12T03:56:47.505Z,15
2017-07-12T03:57:13.646Z,15
2017-07-12T03:57:39.788Z,15
2017-07-12T03:58:05.936Z,15
2017-07-12T03:58:32.068Z,15
2017-07-12T03:58:58.203Z,15
2017-07-12T03:59:24.349Z,20
2017-07-12T03:59:50.483Z,20
2017-07-12T04:00:16.613Z,20
2017-07-12T04:00:42.765Z,20
2017-07-12T04:01:08.923Z,25
2017-07-12T04:01:35.054Z,25
2017-07-12T04:02:01.201Z,30
2017-07-12T04:02:27.343Z,30
2017-07-12T04:02:53.481Z,30
2017-07-12T04:03:19.615Z,35
2017-07-12T04:03:45.743Z,35
2017-07-12T04:04:11.894Z,30
2017-07-12T04:04:38.030Z,30
2017-07-12T04:05:04.158Z,30
2017-07-12T04:05:30.306Z,30
2017-07-12T04:05:56.447Z,30
2017-07-12T04:06:22.573Z,30
2017-07-12T04:06:48.720Z,30
2017-07-12T04:07:14.869Z,30
2017-07-12T04:07:40.993Z,30
2017-07-12T04:08:07.136Z,30
2017-07-12T04:08:33.266Z,25
2017-07-12T04:08:59.414Z,25
2017-07-12T04:09:25.551Z,25
2017-07-12T04:09:51.683Z,25
2017-07-12T04:10:17.824Z,25
2017-07-12T04:10:43.973Z,25
2017-07-12T04:11:10.097Z,25
2017-07-12T04:11:36.239Z,25
2017-07-12T04:12:02.386Z,25
2017-07-12T04:12:28.514Z,25
2017-07-12T04:12:54.650Z,20
2017-07-12T04:13:20.798Z,20
2017-07-12T04:13:46.933Z,20
2017-07-12T04:14:13.062Z,20
2017-07-12T04:14:39.208Z,20
2017-07-12T04:15:05.345Z,15
2017-07-12T04:15:31.494Z,15
2017-07-12T04:15:57.642Z,15
2017-07-12T04:16:23.779Z,10
2017-07-12T04:16:49.909Z,10
2017-07-12T04:17:16.052Z,10
2017-07-12T04:17:42.199Z,10
2017-07-12T04:18:08.323Z,10
2017-07-12T04:18:34.466Z,10
2017-07-12T04:19:00.639Z,10
2017-07-12T04:19:26.765Z,5
2017-07-12T04:19:52.905Z,5
2017-07-12T04:20:19.036Z,5
2017-07-12T04:20:45.181Z,5
2017-07-12T04:21:11.325Z,5
2017-07-12T04:21:37.454Z,5
2017-07-12T04:22:03.592Z,5
2017-07-12T04:22:29.744Z,5
2017-07-12T04:22:55.872Z,5
2017-07-12T04:23:22.011Z,5
2017-07-12T04:23:48.154Z,5
2017-07-12T04:24:14.288Z,5
2017-07-12T04:24:40.417Z,5
2017-07-12T04:25:06.568Z,5
2017-07-12T04:25:32.704Z,5
2017-07-12T04:25:58.847Z,5
2017-07-12T04:26:24.978Z,5
2017-07-12T04:26:51.115Z,5
2017-07-12T04:27:17.258Z,5
2017-07-12T04:27:43.391Z,5
2017-07-12T04:28:09.525Z,5
2017-07-12T04:28:35.673Z,5
2017-07-12T04:29:01.812Z,5
2017-07-12T04:29:27.940Z,5
2017-07-12T04:29:54.087Z,5
2017-07-12T04:30:20.251Z,5
2017-07-12T04:30:46.392Z,5
2017-07-12T04:31:12.523Z,5
2017-07-12T04:31:38.656Z,5
2017-07-12T04:32:04.811Z,5
2017-07-12T04:32:30.944Z,5
2017-07-12T04:32:57.076Z,5
2017-07-12T04:33:23.218Z,5
2017-07-12T04:33:49.353Z,5
2017-07-12T04:34:15.485Z,10
2017-07-12T04:34:41.635Z,10
2017-07-12T04:35:07.852Z,10
2017-07-12T04:35:33.931Z,10
2017-07-12T04:36:00.069Z,10
2017-07-12T04:36:26.201Z,10
2017-07-12T04:36:52.374Z,15
2017-07-12T04:37:18.513Z,15
2017-07-12T04:37:44.646Z,15
2017-07-12T04:38:10.788Z,15
2017-07-12T04:38:36.938Z,15
2017-07-12T04:39:03.063Z,15
2017-07-12T04:39:29.206Z,15
2017-07-12T04:39:55.355Z,20
2017-07-12T04:40:21.484Z,20
2017-07-12T04:40:47.620Z,20
2017-07-12T04:41:13.766Z,20
2017-07-12T04:41:39.901Z,20
2017-07-12T04:42:06.048Z,20
2017-07-12T04:42:32.178Z,20
2017-07-12T04:42:58.315Z,25
2017-07-12T04:43:24.464Z,25
2017-07-12T04:43:50.589Z,25
2017-07-12T04:44:16.729Z,30
2017-07-12T04:44:42.871Z,30
2017-07-12T04:45:09.007Z,30
2017-07-12T04:45:35.137Z,35
2017-07-12T04:46:01.291Z,35
2017-07-12T04:46:27.423Z,35
2017-07-12T04:46:53.552Z,35
2017-07-12T04:47:19.703Z,40
2017-07-12T04:47:45.837Z,40
2017-07-12T04:48:11.988Z,40
2017-07-12T04:48:38.121Z,40
2017-07-12T04:49:04.254Z,45
2017-07-12T04:49:30.402Z,45
2017-07-12T04:49:56.546Z,50
2017-07-12T04:50:22.672Z,50
2017-07-12T04:50:48.820Z,55
2017-07-12T04:51:14.959Z,55
2017-07-12T04:51:41.092Z,60
2017-07-12T04:52:07.234Z,60
2017-07-12T04:52:33.382Z,60
2017-07-12T04:52:59.512Z,65
2017-07-12T04:53:25.650Z,65
2017-07-12T04:53:51.780Z,60
2017-07-12T04:54:17.923Z,60
2017-07-12T04:54:44.066Z,55
2017-07-12T04:55:10.192Z,55
2017-07-12T04:55:36.335Z,50
2017-07-12T04:56:02.480Z,50
2017-07-12T04:56:28.607Z,45
2017-07-12T04:56:54.745Z,45
2017-07-12T04:57:20.891Z,45
2017-07-12T04:57:47.081Z,40
2017-07-12T04:58:13.158Z,40
2017-07-12T04:58:39.301Z,35
2017-07-12T04:59:05.436Z,35
2017-07-12T04:59:31.571Z,35
2017-07-12T04:59:57.720Z,35
2017-07-12T05:00:23.854Z,35
2017-07-12T05:00:49.996Z,30
2017-07-12T05:01:16.144Z,35
2017-07-12T05:01:42.312Z,35
2017-07-12T05:02:08.444Z,35
2017-07-12T05:02:34.589Z,40
2017-07-12T05:03:00.731Z,40
2017-07-12T05:03:26.860Z,45
2017-07-12T05:03:52.999Z,45
2017-07-12T05:04:19.133Z,45
2017-07-12T05:04:45.276Z,50
2017-07-12T05:05:11.421Z,55
2017-07-12T05:05:37.552Z,60
2017-07-12T05:06:03.698Z,60
2017-07-12T05:06:29.842Z,70
2017-07-12T05:06:55.970Z,75
2017-07-12T05:07:22.129Z,80
2017-07-12T05:07:48.310Z,85
2017-07-12T05:08:14.436Z,90
2017-07-12T05:08:40.575Z,95
2017-07-12T05:09:06.721Z,100
2017-07-12T05:09:32.854Z,105
2017-07-12T05:09:59.002Z,110
2017-07-12T05:10:25.127Z,120
2017-07-12T05:10:51.268Z,115
2017-07-12T05:11:17.414Z,115
2017-07-12T05:11:43.544Z,115
2017-07-12T05:12:09.680Z,120
2017-07-12T05:12:35.829Z,120
2017-07-12T05:13:01.963Z,120
2017-07-12T05:13:28.097Z,120
2017-07-12T05:13:54.244Z,120
2017-07-12T05:14:20.382Z,120
2017-07-12T05:14:46.514Z,120
2017-07-12T05:15:12.657Z,110
2017-07-12T05:15:38.789Z,105
2017-07-12T05:16:04.937Z,100
2017-07-12T05:16:31.073Z,100
2017-07-12T05:16:57.201Z,100
2017-07-12T05:17:23.352Z,100
2017-07-12T05:17:49.488Z,100
2017-07-12T05:18:15.621Z,95
2017-07-12T05:18:41.767Z,95
2017-07-12T05:19:07.963Z,95
2017-07-12T05:19:34.041Z,100
2017-07-12T05:20:00.185Z,95
2017-07-12T05:20:26.331Z,95
2017-07-12T05:20:52.465Z,105
2017-07-12T05:21:18.600Z,110
2017-07-12T05:21:44.727Z,115
2017-07-12T05:22:10.873Z,120
2017-07-12T05:22:37.014Z,125
2017-07-12T05:23:03.143Z,120
2017-07-12T05:23:29.285Z,115
2017-07-12T05:23:55.433Z,120
2017-07-12T05:24:21.557Z,125
2017-07-12T05:24:47.699Z,130
2017-07-12T05:25:13.842Z,140
2017-07-12T05:25:39.972Z,140
2017-07-12T05:26:06.104Z,150
2017-07-12T05:26:32.241Z,150
2017-07-12T05:26:58.381Z,155
2017-07-12T05:27:24.532Z,155
2017-07-12T05:27:50.657Z,150
2017-07-12T05:28:16.818Z,150
2017-07-12T05:28:42.967Z,150
2017-07-12T05:29:09.100Z,145
2017-07-12T05:29:35.232Z,145
2017-07-12T05:30:01.381Z,145
2017-07-12T05:30:27.518Z,145
2017-07-12T05:30:53.646Z,145
2017-07-12T05:31:19.798Z,150
2017-07-12T05:31:45.933Z,155
2017-07-12T05:32:12.081Z,155
2017-07-12T05:32:38.211Z,155
2017-07-12T05:33:04.352Z,155
2017-07-12T05:33:30.496Z,155
2017-07-12T05:33:56.631Z,155
2017-07-12T05:34:22.762Z,160
2017-07-12T05:34:48.911Z,160
2017-07-12T05:35:15.043Z,165
2017-07-12T05:35:41.172Z,165
2017-07-12T05:36:07.321Z,160
2017-07-12T05:36:33.465Z,155
2017-07-12T05:36:59.593Z,150
2017-07-12T05:37:25.735Z,145
2017-07-12T05:37:51.866Z,145
2017-07-12T05:38:18.013Z,140
2017-07-12T05:38:44.149Z,135
2017-07-12T05:39:10.280Z,125
2017-07-12T05:39:36.421Z,120
2017-07-12T05:40:02.565Z,115
2017-07-12T05:40:28.714Z,115
2017-07-12T05:40:54.859Z,115
2017-07-12T05:41:21.009Z,115
2017-07-12T05:41:47.136Z,120
2017-07-12T05:42:13.303Z,120
2017-07-12T05:42:39.452Z,120
2017-07-12T05:43:05.602Z,120
2017-07-12T05:43:31.746Z,125
2017-07-12T05:43:57.888Z,120
2017-07-12T05:44:24.019Z,120
2017-07-12T05:44:50.151Z,120
2017-07-12T05:45:16.299Z,120
2017-07-12T05:45:42.435Z,120
2017-07-12T05:46:08.565Z,115
2017-07-12T05:46:34.717Z,110
2017-07-12T05:47:00.856Z,110
2017-07-12T05:47:26.986Z,120
2017-07-12T05:47:53.130Z,125
2017-07-12T05:48:19.278Z,125
2017-07-12T05:48:45.407Z,125
2017-07-12T05:49:11.547Z,125
2017-07-12T05:49:37.678Z,120
2017-07-12T05:50:03.822Z,115
2017-07-12T05:50:29.958Z,105
2017-07-12T05:50:56.091Z,100
2017-07-12T05:51:22.237Z,90
2017-07-12T05:51:48.381Z,85
2017-07-12T05:52:14.511Z,80
2017-07-12T05:52:40.652Z,80
2017-07-12T05:53:06.796Z,75
2017-07-12T05:53:32.927Z,75
2017-07-12T05:53:59.066Z,75
2017-07-12T05:54:25.200Z,75
2017-07-12T05:54:51.343Z,75
2017-07-12T05:55:17.489Z,85
2017-07-12T05:55:43.619Z,100
2017-07-12T05:56:09.754Z,115
2017-07-12T05:56:35.898Z,130
2017-07-12T05:57:02.029Z,130
2017-07-12T05:57:28.165Z,135
2017-07-12T05:57:54.310Z,140
2017-07-12T05:58:20.446Z,150
2017-07-12T05:58:46.578Z,155
2017-07-12T05:59:12.728Z,155
2017-07-12T05:59:38.870Z,155
2017-07-12T06:00:05.013Z,155
2017-07-12T06:00:31.152Z,155
2017-07-12T06:00:57.287Z,150
2017-07-12T06:01:23.437Z,145
2017-07-12T06:01:49.567Z,140
2017-07-12T06:02:15.698Z,140
2017-07-12T06:02:41.844Z,135
2017-07-12T06:03:07.985Z,135
2017-07-12T06:03:34.117Z,135
2017-07-12T06:04:00.283Z,130
2017-07-12T06:04:26.459Z,130
2017-07-12T06:04:52.582Z,130
2017-07-12T06:05:18.726Z,130
2017-07-12T06:05:44.857Z,125
2017-07-12T06:06:11.006Z,120
2017-07-12T06:06:37.142Z,105
2017-07-12T06:07:03.274Z,105
2017-07-12T06:07:29.450Z,115
2017-07-12T06:07:55.571Z,120
2017-07-12T06:08:21.705Z,120
2017-07-12T06:08:47.848Z,120
2017-07-12T06:09:13.995Z,130
2017-07-12T06:09:40.120Z,125
2017-07-12T06:10:06.262Z,115
2017-07-12T06:10:32.411Z,105
2017-07-12T06:10:58.542Z,100
2017-07-12T06:11:24.684Z,105
2017-07-12T06:11:50.815Z,115
2017-07-12T06:12:16.976Z,125
2017-07-12T06:12:43.119Z,125
2017-07-12T06:13:09.257Z,125
2017-07-12T06:13:35.395Z,125
2017-07-12T06:14:01.544Z,130
2017-07-12T06:14:27.675Z,135
2017-07-12T06:14:53.812Z,135
2017-07-12T06:15:19.957Z,130
2017-07-12T06:15:46.091Z,125
2017-07-12T06:16:12.243Z,125
2017-07-12T06:16:38.389Z,120
2017-07-12T06:17:04.591Z,120
2017-07-12T06:17:30.740Z,115
2017-07-12T06:17:56.873Z,105
2017-07-12T06:18:23.013Z,105
2017-07-12T06:18:49.157Z,105
2017-07-12T06:19:15.293Z,100